sensor_id;sensor_type;location;lat;lon;timestamp;pressure;altitude;pressure_sealevel;temperature;humidity
80323;BME280;69636;52.372;13.610;2023-12-20T00:00:32;100701.97;;;4.95;100.00
80323;BME280;69636;52.372;13.610;2023-12-20T00:02:59;100711.78;;;4.93;100.00
80323;BME280;69636;52.372;13.610;2023-12-20T00:05:27;100708.19;;;4.94;100.00
80323;BME280;69636;52.372;13.610;2023-12-20T00:07:54;100710.00;;;4.93;100.00
80323;BME280;69636;52.372;13.610;2023-12-20T00:10:21;100707.00;;;4.98;100.00
80323;BME280;69636;52.372;13.610;2023-12-20T00:12:49;100707.22;;;4.95;100.00
80323;BME280;69636;52.372;13.610;2023-12-20T00:15:18;100707.22;;;4.95;100.00
80323;BME280;69636;52.372;13.610;2023-12-20T00:17:45;100697.66;;;4.94;100.00
80323;BME280;69636;52.372;13.610;2023-12-20T00:20:13;100695.88;;;4.94;100.00
80323;BME280;69636;52.372;13.610;2023-12-20T00:22:40;100687.84;;;4.96;100.00
80323;BME280;69636;52.372;13.610;2023-12-20T00:25:08;100691.44;;;4.95;100.00
80323;BME280;69636;52.372;13.610;2023-12-20T00:27:35;100689.66;;;4.95;100.00
80323;BME280;69636;52.372;13.610;2023-12-20T00:30:04;100684.38;;;4.95;100.00
80323;BME280;69636;52.372;13.610;2023-12-20T00:32:33;100685.09;;;4.97;100.00
80323;BME280;69636;52.372;13.610;2023-12-20T00:35:00;100685.09;;;4.97;100.00
80323;BME280;69636;52.372;13.610;2023-12-20T00:37:27;100691.44;;;4.95;100.00
80323;BME280;69636;52.372;13.610;2023-12-20T00:39:55;100681.53;;;4.98;100.00
80323;BME280;69636;52.372;13.610;2023-12-20T00:42:22;100674.84;;;5.05;100.00
80323;BME280;69636;52.372;13.610;2023-12-20T00:44:50;100678.78;;;5.00;100.00
80323;BME280;69636;52.372;13.610;2023-12-20T00:47:17;100675.44;;;4.98;100.00
80323;BME280;69636;52.372;13.610;2023-12-20T00:49:46;100685.94;;;4.98;100.00
80323;BME280;69636;52.372;13.610;2023-12-20T00:52:13;100692.16;;;4.97;100.00
80323;BME280;69636;52.372;13.610;2023-12-20T00:54:41;100675.19;;;5.01;100.00
80323;BME280;69636;52.372;13.610;2023-12-20T00:57:08;100677.34;;;4.96;100.00
80323;BME280;69636;52.372;13.610;2023-12-20T00:59:36;100675.31;;;4.99;100.00
80323;BME280;69636;52.372;13.610;2023-12-20T01:02:03;100663.94;;;4.99;100.00
80323;BME280;69636;52.372;13.610;2023-12-20T01:04:31;100674.47;;;4.99;100.00
80323;BME280;69636;52.372;13.610;2023-12-20T01:07:00;100666.56;;;4.99;100.00
80323;BME280;69636;52.372;13.610;2023-12-20T01:09:27;100673.75;;;4.97;100.00
80323;BME280;69636;52.372;13.610;2023-12-20T01:11:55;100676.50;;;4.95;100.00
80323;BME280;69636;52.372;13.610;2023-12-20T01:14:22;100676.38;;;4.97;100.00
80323;BME280;69636;52.372;13.610;2023-12-20T01:16:50;100672.06;;;4.96;100.00
80323;BME280;69636;52.372;13.610;2023-12-20T01:19:17;100667.66;;;4.96;100.00
80323;BME280;69636;52.372;13.610;2023-12-20T01:21:44;100669.31;;;4.97;100.00
80323;BME280;69636;52.372;13.610;2023-12-20T01:24:13;100667.53;;;4.98;100.00
80323;BME280;69636;52.372;13.610;2023-12-20T01:26:41;100672.56;;;5.01;100.00
80323;BME280;69636;52.372;13.610;2023-12-20T01:29:08;100663.72;;;5.02;100.00
80323;BME280;69636;52.372;13.610;2023-12-20T01:31:35;100663.00;;;5.00;100.00
80323;BME280;69636;52.372;13.610;2023-12-20T01:34:03;100667.06;;;5.04;100.00
80323;BME280;69636;52.372;13.610;2023-12-20T01:36:30;100670.88;;;5.00;100.00
80323;BME280;69636;52.372;13.610;2023-12-20T01:38:58;100677.81;;;5.01;100.00
80323;BME280;69636;52.372;13.610;2023-12-20T01:41:27;100676.25;;;4.98;100.00
80323;BME280;69636;52.372;13.610;2023-12-20T01:43:54;100674.22;;;5.02;100.00
80323;BME280;69636;52.372;13.610;2023-12-20T01:46:21;100676.25;;;4.98;100.00
80323;BME280;69636;52.372;13.610;2023-12-20T01:48:49;100671.59;;;5.02;100.00
80323;BME280;69636;52.372;13.610;2023-12-20T01:51:17;100663.81;;;5.00;100.00
80323;BME280;69636;52.372;13.610;2023-12-20T01:53:44;100664.91;;;4.98;100.00
80323;BME280;69636;52.372;13.610;2023-12-20T01:56:12;100658.09;;;4.95;100.00
80323;BME280;69636;52.372;13.610;2023-12-20T01:58:43;100665.84;;;4.97;100.00
80323;BME280;69636;52.372;13.610;2023-12-20T02:01:12;100657.97;;;4.97;100.00
80323;BME280;69636;52.372;13.610;2023-12-20T02:03:40;100657.00;;;4.98;100.00
80323;BME280;69636;52.372;13.610;2023-12-20T02:06:08;100648.50;;;4.94;100.00
80323;BME280;69636;52.372;13.610;2023-12-20T02:08:36;100653.78;;;4.94;100.00
80323;BME280;69636;52.372;13.610;2023-12-20T02:11:03;100654.63;;;4.95;100.00
80323;BME280;69636;52.372;13.610;2023-12-20T02:13:31;100639.66;;;4.95;100.00
80323;BME280;69636;52.372;13.610;2023-12-20T02:16:00;100636.91;;;4.97;100.00
80323;BME280;69636;52.372;13.610;2023-12-20T02:18:27;100625.44;;;4.98;100.00
80323;BME280;69636;52.372;13.610;2023-12-20T02:20:55;100631.66;;;4.97;100.00
80323;BME280;69636;52.372;13.610;2023-12-20T02:23:24;100634.41;;;4.95;100.00
80323;BME280;69636;52.372;13.610;2023-12-20T02:25:51;100641.34;;;5.07;100.00
80323;BME280;69636;52.372;13.610;2023-12-20T02:28:18;100643.84;;;4.98;100.00
80323;BME280;69636;52.372;13.610;2023-12-20T02:30:46;100631.41;;;5.00;100.00
80323;BME280;69636;52.372;13.610;2023-12-20T02:33:14;100633.94;;;5.01;100.00
80323;BME280;69636;52.372;13.610;2023-12-20T02:35:42;100634.78;;;5.02;100.00
80323;BME280;69636;52.372;13.610;2023-12-20T02:38:09;100624.97;;;5.04;100.00
80323;BME280;69636;52.372;13.610;2023-12-20T02:40:38;100637.28;;;5.03;100.00
80323;BME280;69636;52.372;13.610;2023-12-20T02:43:05;100633.81;;;5.03;100.00
80323;BME280;69636;52.372;13.610;2023-12-20T02:45:33;100622.94;;;5.07;100.00
80323;BME280;69636;52.372;13.610;2023-12-20T02:48:00;100624.72;;;5.07;100.00
80323;BME280;69636;52.372;13.610;2023-12-20T02:50:27;100620.91;;;5.11;100.00
80323;BME280;69636;52.372;13.610;2023-12-20T02:52:55;100621.84;;;5.10;100.00
80323;BME280;69636;52.372;13.610;2023-12-20T02:55:22;100612.16;;;5.10;100.00
80323;BME280;69636;52.372;13.610;2023-12-20T02:57:51;100626.16;;;5.11;100.00
80323;BME280;69636;52.372;13.610;2023-12-20T03:00:18;100627.97;;;5.10;100.00
80323;BME280;69636;52.372;13.610;2023-12-20T03:02:46;100629.63;;;5.11;100.00
80323;BME280;69636;52.372;13.610;2023-12-20T03:05:13;100630.81;;;5.19;100.00
80323;BME280;69636;52.372;13.610;2023-12-20T03:07:41;100630.81;;;5.19;100.00
80323;BME280;69636;52.372;13.610;2023-12-20T03:10:08;100630.00;;;5.18;100.00
80323;BME280;69636;52.372;13.610;2023-12-20T03:12:46;100629.28;;;5.16;100.00
80323;BME280;69636;52.372;13.610;2023-12-20T03:15:15;100637.63;;;5.21;100.00
80323;BME280;69636;52.372;13.610;2023-12-20T03:17:43;100640.25;;;5.21;100.00
80323;BME280;69636;52.372;13.610;2023-12-20T03:20:11;100640.13;;;5.23;100.00
80323;BME280;69636;52.372;13.610;2023-12-20T03:22:38;100645.38;;;5.23;100.00
80323;BME280;69636;52.372;13.610;2023-12-20T03:25:07;100648.84;;;5.23;100.00
80323;BME280;69636;52.372;13.610;2023-12-20T03:27:36;100653.28;;;5.23;100.00
80323;BME280;69636;52.372;13.610;2023-12-20T03:30:05;100645.28;;;5.24;100.00
80323;BME280;69636;52.372;13.610;2023-12-20T03:32:34;100648.03;;;5.23;100.00
80323;BME280;69636;52.372;13.610;2023-12-20T03:35:01;100646.34;;;5.22;100.00
80323;BME280;69636;52.372;13.610;2023-12-20T03:37:29;100646.22;;;5.23;100.00
80323;BME280;69636;52.372;13.610;2023-12-20T03:39:56;100652.09;;;5.27;100.00
80323;BME280;69636;52.372;13.610;2023-12-20T03:42:24;100648.63;;;5.26;100.00
80323;BME280;69636;52.372;13.610;2023-12-20T03:44:51;100647.19;;;5.33;100.00
80323;BME280;69636;52.372;13.610;2023-12-20T03:47:18;100644.31;;;5.36;100.00
80323;BME280;69636;52.372;13.610;2023-12-20T03:49:47;100650.16;;;5.40;100.00
80323;BME280;69636;52.372;13.610;2023-12-20T03:52:14;100658.44;;;5.35;100.00
80323;BME280;69636;52.372;13.610;2023-12-20T03:54:42;100655.06;;;5.44;100.00
80323;BME280;69636;52.372;13.610;2023-12-20T03:57:09;100656.03;;;5.43;100.00
80323;BME280;69636;52.372;13.610;2023-12-20T03:59:38;100649.41;;;5.49;100.00
80323;BME280;69636;52.372;13.610;2023-12-20T04:02:05;100639.97;;;5.46;100.00
80323;BME280;69636;52.372;13.610;2023-12-20T04:04:32;100636.13;;;5.51;100.00
80323;BME280;69636;52.372;13.610;2023-12-20T04:07:01;100634.97;;;5.43;100.00
80323;BME280;69636;52.372;13.610;2023-12-20T04:09:29;100620.38;;;5.39;100.00
80323;BME280;69636;52.372;13.610;2023-12-20T04:11:56;100628.75;;;5.33;100.00
80323;BME280;69636;52.372;13.610;2023-12-20T04:14:23;100621.56;;;5.35;100.00
80323;BME280;69636;52.372;13.610;2023-12-20T04:16:51;100628.03;;;5.31;100.00
80323;BME280;69636;52.372;13.610;2023-12-20T04:19:18;100627.31;;;5.29;100.00
80323;BME280;69636;52.372;13.610;2023-12-20T04:21:45;100624.69;;;5.29;100.00
80323;BME280;69636;52.372;13.610;2023-12-20T04:24:14;100617.63;;;5.30;100.00
80323;BME280;69636;52.372;13.610;2023-12-20T04:26:41;100614.28;;;5.28;100.00
80323;BME280;69636;52.372;13.610;2023-12-20T04:29:09;100616.06;;;5.27;100.00
80323;BME280;69636;52.372;13.610;2023-12-20T04:31:36;100623.59;;;5.32;100.00
80323;BME280;69636;52.372;13.610;2023-12-20T04:34:03;100626.84;;;5.35;100.00
80323;BME280;69636;52.372;13.610;2023-12-20T04:36:31;100622.66;;;5.33;100.00
80323;BME280;69636;52.372;13.610;2023-12-20T04:38:58;100627.19;;;5.31;100.00
80323;BME280;69636;52.372;13.610;2023-12-20T04:41:27;100622.06;;;5.29;100.00
80323;BME280;69636;52.372;13.610;2023-12-20T04:43:56;100622.06;;;5.29;100.00
80323;BME280;69636;52.372;13.610;2023-12-20T04:46:23;100616.66;;;5.31;100.00
80323;BME280;69636;52.372;13.610;2023-12-20T04:48:51;100616.56;;;5.32;100.00
80323;BME280;69636;52.372;13.610;2023-12-20T04:51:18;100616.44;;;5.34;100.00
80323;BME280;69636;52.372;13.610;2023-12-20T04:53:46;100617.63;;;5.30;100.00
80323;BME280;69636;52.372;13.610;2023-12-20T04:56:13;100623.00;;;5.28;100.00
80323;BME280;69636;52.372;13.610;2023-12-20T04:58:43;100623.84;;;5.29;100.00
80323;BME280;69636;52.372;13.610;2023-12-20T05:01:10;100625.88;;;5.25;100.00
80323;BME280;69636;52.372;13.610;2023-12-20T05:03:38;100611.44;;;5.20;100.00
80323;BME280;69636;52.372;13.610;2023-12-20T05:06:06;100617.66;;;5.19;100.00
80323;BME280;69636;52.372;13.610;2023-12-20T05:08:33;100612.00;;;5.23;100.00
80323;BME280;69636;52.372;13.610;2023-12-20T05:11:00;100616.25;;;5.15;100.00
80323;BME280;69636;52.372;13.610;2023-12-20T05:13:28;100614.81;;;5.10;100.00
80323;BME280;69636;52.372;13.610;2023-12-20T05:16:09;100611.69;;;5.05;100.00
80323;BME280;69636;52.372;13.610;2023-12-20T05:18:37;100616.34;;;5.02;100.00
80323;BME280;69636;52.372;13.610;2023-12-20T05:21:04;100618.50;;;4.97;100.00
80323;BME280;69636;52.372;13.610;2023-12-20T05:23:31;100621.88;;;4.88;100.00
80323;BME280;69636;52.372;13.610;2023-12-20T05:25:59;100609.91;;;4.84;100.00
80323;BME280;69636;52.372;13.610;2023-12-20T05:28:26;100619.84;;;4.80;100.00
80323;BME280;69636;52.372;13.610;2023-12-20T05:30:54;100618.88;;;4.81;100.00
80323;BME280;69636;52.372;13.610;2023-12-20T05:33:23;100624.50;;;4.76;100.00
80323;BME280;69636;52.372;13.610;2023-12-20T05:35:50;100628.31;;;4.72;100.00
80323;BME280;69636;52.372;13.610;2023-12-20T05:38:17;100631.28;;;4.68;100.00
80323;BME280;69636;52.372;13.610;2023-12-20T05:40:45;100636.91;;;4.74;100.00
80323;BME280;69636;52.372;13.610;2023-12-20T05:43:12;100632.88;;;4.82;100.00
80323;BME280;69636;52.372;13.610;2023-12-20T05:45:39;100637.41;;;4.80;100.00
80323;BME280;69636;52.372;13.610;2023-12-20T05:48:07;100639.44;;;4.76;100.00
80323;BME280;69636;52.372;13.610;2023-12-20T05:50:36;100632.13;;;4.68;100.00
80323;BME280;69636;52.372;13.610;2023-12-20T05:53:03;100638.84;;;4.61;100.00
80323;BME280;69636;52.372;13.610;2023-12-20T05:55:30;100634.31;;;4.63;100.00
80323;BME280;69636;52.372;13.610;2023-12-20T05:57:58;100639.53;;;4.52;100.00
80323;BME280;69636;52.372;13.610;2023-12-20T06:00:25;100643.22;;;4.50;100.00
80323;BME280;69636;52.372;13.610;2023-12-20T06:02:52;100632.34;;;4.43;100.00
80323;BME280;69636;52.372;13.610;2023-12-20T06:05:20;100625.66;;;4.39;100.00
80323;BME280;69636;52.372;13.610;2023-12-20T06:07:48;100621.34;;;4.27;100.00
80323;BME280;69636;52.372;13.610;2023-12-20T06:10:16;100611.50;;;4.18;100.00
80323;BME280;69636;52.372;13.610;2023-12-20T06:12:43;100615.56;;;4.11;100.00
80323;BME280;69636;52.372;13.610;2023-12-20T06:15:11;100616.03;;;4.04;100.00
80323;BME280;69636;52.372;13.610;2023-12-20T06:17:38;100619.81;;;4.00;100.00
80323;BME280;69636;52.372;13.610;2023-12-20T06:20:07;100617.53;;;3.96;100.00
80323;BME280;69636;52.372;13.610;2023-12-20T06:22:35;100613.13;;;3.96;100.00
80323;BME280;69636;52.372;13.610;2023-12-20T06:25:05;100607.25;;;3.93;100.00
80323;BME280;69636;52.372;13.610;2023-12-20T06:27:32;100612.75;;;3.90;100.00
80323;BME280;69636;52.372;13.610;2023-12-20T06:29:59;100606.06;;;3.86;100.00
80323;BME280;69636;52.372;13.610;2023-12-20T06:32:27;100609.88;;;3.82;100.00
80323;BME280;69636;52.372;13.610;2023-12-20T06:34:54;100612.59;;;3.80;100.00
80323;BME280;69636;52.372;13.610;2023-12-20T06:37:22;100611.88;;;3.78;100.00
80323;BME280;69636;52.372;13.610;2023-12-20T06:39:49;100606.72;;;3.77;100.00
80323;BME280;69636;52.372;13.610;2023-12-20T06:42:18;100613.03;;;3.74;100.00
80323;BME280;69636;52.372;13.610;2023-12-20T06:44:45;100612.31;;;3.72;100.00
80323;BME280;69636;52.372;13.610;2023-12-20T06:47:13;100618.75;;;3.68;100.00
80323;BME280;69636;52.372;13.610;2023-12-20T06:49:40;100622.59;;;3.75;100.00
80323;BME280;69636;52.372;13.610;2023-12-20T06:52:08;100618.75;;;3.68;100.00
80323;BME280;69636;52.372;13.610;2023-12-20T06:54:35;100622.31;;;3.67;100.00
80323;BME280;69636;52.372;13.610;2023-12-20T06:57:03;100618.53;;;3.71;100.00
80323;BME280;69636;52.372;13.610;2023-12-20T06:59:32;100611.25;;;3.74;100.00
80323;BME280;69636;52.372;13.610;2023-12-20T07:01:59;100615.66;;;3.74;100.00
80323;BME280;69636;52.372;13.610;2023-12-20T07:04:26;100618.06;;;3.77;100.00
80323;BME280;69636;52.372;13.610;2023-12-20T07:06:54;100615.13;;;3.82;100.00
80323;BME280;69636;52.372;13.610;2023-12-20T07:09:21;100618.56;;;3.82;100.00
80323;BME280;69636;52.372;13.610;2023-12-20T07:11:49;100618.69;;;3.81;100.00
80323;BME280;69636;52.372;13.610;2023-12-20T07:14:16;100623.00;;;3.82;100.00
80323;BME280;69636;52.372;13.610;2023-12-20T07:16:45;100613.56;;;3.90;100.00
80323;BME280;69636;52.372;13.610;2023-12-20T07:19:12;100603.06;;;3.90;100.00
80323;BME280;69636;52.372;13.610;2023-12-20T07:21:39;100611.94;;;3.89;100.00
80323;BME280;69636;52.372;13.610;2023-12-20T07:24:07;100615.97;;;3.93;100.00
80323;BME280;69636;52.372;13.610;2023-12-20T07:26:35;100610.59;;;3.95;100.00
80323;BME280;69636;52.372;13.610;2023-12-20T07:29:02;100601.91;;;3.94;100.00
80323;BME280;69636;52.372;13.610;2023-12-20T07:31:29;100607.88;;;3.96;100.00
80323;BME280;69636;52.372;13.610;2023-12-20T07:33:58;100615.03;;;3.94;100.00
80323;BME280;69636;52.372;13.610;2023-12-20T07:36:26;100605.03;;;3.99;100.00
80323;BME280;69636;52.372;13.610;2023-12-20T07:38:53;100602.06;;;4.04;100.00
80323;BME280;69636;52.372;13.610;2023-12-20T07:41:20;100607.81;;;4.09;100.00
80323;BME280;69636;52.372;13.610;2023-12-20T07:43:47;100613.66;;;4.13;100.00
80323;BME280;69636;52.372;13.610;2023-12-20T07:46:15;100615.09;;;4.17;100.00
80323;BME280;69636;52.372;13.610;2023-12-20T07:48:42;100614.41;;;4.15;100.00
80323;BME280;69636;52.372;13.610;2023-12-20T07:51:13;100612.47;;;4.17;100.00
80323;BME280;69636;52.372;13.610;2023-12-20T07:53:41;100611.50;;;4.18;100.00
80323;BME280;69636;52.372;13.610;2023-12-20T07:56:15;100602.94;;;4.16;100.00
80323;BME280;69636;52.372;13.610;2023-12-20T07:58:42;100597.69;;;4.16;100.00
80323;BME280;69636;52.372;13.610;2023-12-20T08:01:19;100601.72;;;4.20;100.00
80323;BME280;69636;52.372;13.610;2023-12-20T08:03:48;100600.31;;;4.27;100.00
80323;BME280;69636;52.372;13.610;2023-12-20T08:06:17;100604.13;;;4.23;100.00
80323;BME280;69636;52.372;13.610;2023-12-20T08:08:45;100605.56;;;4.27;100.00
80323;BME280;69636;52.372;13.610;2023-12-20T08:11:19;100604.38;;;4.31;100.00
80323;BME280;69636;52.372;13.610;2023-12-20T08:13:46;100596.50;;;4.31;100.00
80323;BME280;69636;52.372;13.610;2023-12-20T08:16:13;100595.78;;;4.29;100.00
80323;BME280;69636;52.372;13.610;2023-12-20T08:18:41;100603.44;;;4.32;100.00
80323;BME280;69636;52.372;13.610;2023-12-20T08:21:08;100601.28;;;4.37;100.00
80323;BME280;69636;52.372;13.610;2023-12-20T08:23:37;100600.22;;;4.39;100.00
80323;BME280;69636;52.372;13.610;2023-12-20T08:26:05;100599.50;;;4.37;100.00
80323;BME280;69636;52.372;13.610;2023-12-20T08:28:32;100598.56;;;4.38;100.00
80323;BME280;69636;52.372;13.610;2023-12-20T08:31:00;100599.63;;;4.36;100.00
80323;BME280;69636;52.372;13.610;2023-12-20T08:33:27;100592.22;;;4.41;100.00
80323;BME280;69636;52.372;13.610;2023-12-20T08:35:55;100598.44;;;4.40;100.00
80323;BME280;69636;52.372;13.610;2023-12-20T08:38:22;100597.00;;;4.36;100.00
80323;BME280;69636;52.372;13.610;2023-12-20T08:40:51;100586.38;;;4.37;100.00
80323;BME280;69636;52.372;13.610;2023-12-20T08:43:18;100593.19;;;4.40;100.00
80323;BME280;69636;52.372;13.610;2023-12-20T08:45:46;100594.97;;;4.39;100.00
80323;BME280;69636;52.372;13.610;2023-12-20T08:48:13;100597.22;;;4.44;100.00
80323;BME280;69636;52.372;13.610;2023-12-20T08:50:40;100589.94;;;4.48;100.00
80323;BME280;69636;52.372;13.610;2023-12-20T08:53:08;100589.59;;;4.52;100.00
80323;BME280;69636;52.372;13.610;2023-12-20T08:55:35;100593.78;;;4.55;100.00
80323;BME280;69636;52.372;13.610;2023-12-20T08:58:04;100595.59;;;4.65;100.00
80323;BME280;69636;52.372;13.610;2023-12-20T09:00:31;100589.59;;;4.74;100.00
80323;BME280;69636;52.372;13.610;2023-12-20T09:02:59;100586.72;;;4.77;100.00
80323;BME280;69636;52.372;13.610;2023-12-20T09:05:26;100585.53;;;4.82;100.00
80323;BME280;69636;52.372;13.610;2023-12-20T09:07:54;100592.47;;;4.83;100.00
80323;BME280;69636;52.372;13.610;2023-12-20T09:10:21;100591.75;;;4.81;100.00
80323;BME280;69636;52.372;13.610;2023-12-20T09:12:49;100585.75;;;4.78;100.00
80323;BME280;69636;52.372;13.610;2023-12-20T09:15:18;100585.88;;;4.77;100.00
80323;BME280;69636;52.372;13.610;2023-12-20T09:17:45;100589.13;;;4.81;100.00
80323;BME280;69636;52.372;13.610;2023-12-20T09:20:13;100588.63;;;4.87;100.00
80323;BME280;69636;52.372;13.610;2023-12-20T09:22:41;100588.84;;;4.95;100.00
80323;BME280;69636;52.372;13.610;2023-12-20T09:25:09;100582.41;;;4.99;100.00
80323;BME280;69636;52.372;13.610;2023-12-20T09:27:37;100575.97;;;4.92;100.00
80323;BME280;69636;52.372;13.610;2023-12-20T09:30:05;100573.34;;;4.92;100.00
80323;BME280;69636;52.372;13.610;2023-12-20T09:32:34;100568.09;;;4.92;100.00
80323;BME280;69636;52.372;13.610;2023-12-20T09:35:02;100573.47;;;4.90;100.00
80323;BME280;69636;52.372;13.610;2023-12-20T09:37:29;100563.78;;;4.91;100.00
80323;BME280;69636;52.372;13.610;2023-12-20T09:39:57;100569.03;;;4.91;100.00
80323;BME280;69636;52.372;13.610;2023-12-20T09:42:31;100565.44;;;4.92;100.00
80323;BME280;69636;52.372;13.610;2023-12-20T09:45:04;100557.69;;;4.90;100.00
80323;BME280;69636;52.372;13.610;2023-12-20T09:47:35;100564.09;;;4.97;100.00
80323;BME280;69636;52.372;13.610;2023-12-20T09:50:03;100568.03;;;5.03;100.00
80323;BME280;69636;52.372;13.610;2023-12-20T09:52:31;100565.88;;;5.08;100.00
80323;BME280;69636;52.372;13.610;2023-12-20T09:54:59;100556.78;;;5.12;100.00
80323;BME280;69636;52.372;13.610;2023-12-20T09:57:28;100554.03;;;5.14;100.00
80323;BME280;69636;52.372;13.610;2023-12-20T09:59:55;100552.97;;;5.16;100.00
80323;BME280;69636;52.372;13.610;2023-12-20T10:02:24;100552.13;;;5.16;100.00
80323;BME280;69636;52.372;13.610;2023-12-20T10:04:56;100547.19;;;5.22;100.00
80323;BME280;69636;52.372;13.610;2023-12-20T10:07:23;100549.38;;;5.17;100.00
80323;BME280;69636;52.372;13.610;2023-12-20T10:09:54;100536.22;;;5.17;100.00
80323;BME280;69636;52.372;13.610;2023-12-20T10:12:21;100524.97;;;5.15;100.00
80323;BME280;69636;52.372;13.610;2023-12-20T10:14:50;100525.56;;;5.19;100.00
80323;BME280;69636;52.372;13.610;2023-12-20T10:17:17;100519.47;;;5.18;100.00
80323;BME280;69636;52.372;13.610;2023-12-20T10:19:45;100512.00;;;5.23;100.00
80323;BME280;69636;52.372;13.610;2023-12-20T10:22:15;100507.47;;;5.25;100.00
80323;BME280;69636;52.372;13.610;2023-12-20T10:24:56;100499.31;;;5.28;100.00
80323;BME280;69636;52.372;13.610;2023-12-20T10:27:23;100496.44;;;5.31;100.00
80323;BME280;69636;52.372;13.610;2023-12-20T10:29:51;100501.00;;;5.29;100.00
80323;BME280;69636;52.372;13.610;2023-12-20T10:32:23;100510.09;;;5.25;100.00
80323;BME280;69636;52.372;13.610;2023-12-20T10:34:52;100498.47;;;5.28;100.00
80323;BME280;69636;52.372;13.610;2023-12-20T10:37:21;100491.75;;;5.35;100.00
80323;BME280;69636;52.372;13.610;2023-12-20T10:39:50;100488.63;;;5.41;100.00
80323;BME280;69636;52.372;13.610;2023-12-20T10:42:18;100489.22;;;5.44;100.00
80323;BME280;69636;52.372;13.610;2023-12-20T10:44:47;100485.34;;;5.49;100.00
80323;BME280;69636;52.372;13.610;2023-12-20T10:47:16;100473.72;;;5.51;100.00
80323;BME280;69636;52.372;13.610;2023-12-20T10:49:45;100464.03;;;5.52;100.00
80323;BME280;69636;52.372;13.610;2023-12-20T10:52:13;100457.94;;;5.51;100.00
80323;BME280;69636;52.372;13.610;2023-12-20T10:54:41;100463.78;;;5.55;100.00
80323;BME280;69636;52.372;13.610;2023-12-20T10:57:09;100454.41;;;5.62;100.00
80323;BME280;69636;52.372;13.610;2023-12-20T10:59:37;100441.69;;;5.67;100.00
80323;BME280;69636;52.372;13.610;2023-12-20T11:02:05;100446.97;;;6.77;100.00
80323;BME280;69636;52.372;13.610;2023-12-20T11:04:39;100445.09;;;6.99;100.00
80323;BME280;69636;52.372;13.610;2023-12-20T11:07:17;100432.13;;;6.76;100.00
80323;BME280;69636;52.372;13.610;2023-12-20T11:09:56;100441.63;;;6.39;100.00
80323;BME280;69636;52.372;13.610;2023-12-20T11:12:32;100427.25;;;6.12;100.00
80323;BME280;69636;52.372;13.610;2023-12-20T11:15:02;100430.94;;;6.00;100.00
80323;BME280;69636;52.372;13.610;2023-12-20T11:17:31;100420.50;;;5.89;100.00
80323;BME280;69636;52.372;13.610;2023-12-20T11:20:07;100420.97;;;5.83;100.00
80323;BME280;69636;52.372;13.610;2023-12-20T11:22:35;100420.72;;;5.86;100.00
80323;BME280;69636;52.372;13.610;2023-12-20T11:25:10;100415.59;;;5.85;100.00
80323;BME280;69636;52.372;13.610;2023-12-20T11:27:41;100406.97;;;5.83;100.00
80323;BME280;69636;52.372;13.610;2023-12-20T11:30:10;100408.31;;;5.77;100.00
80323;BME280;69636;52.372;13.610;2023-12-20T11:32:37;100399.72;;;5.75;100.00
80323;BME280;69636;52.372;13.610;2023-12-20T11:35:19;100401.53;;;5.74;100.00
80323;BME280;69636;52.372;13.610;2023-12-20T11:37:47;100396.81;;;5.78;100.00
80323;BME280;69636;52.372;13.610;2023-12-20T11:40:17;100392.53;;;5.77;100.00
80323;BME280;69636;52.372;13.610;2023-12-20T11:42:48;100384.47;;;5.69;100.00
80323;BME280;69636;52.372;13.610;2023-12-20T11:45:18;100388.44;;;5.63;100.00
80323;BME280;69636;52.372;13.610;2023-12-20T11:47:47;100376.38;;;5.61;100.00
80323;BME280;69636;52.372;13.610;2023-12-20T11:50:15;100368.59;;;5.59;100.00
80323;BME280;69636;52.372;13.610;2023-12-20T11:52:43;100357.63;;;5.54;100.00
80323;BME280;69636;52.372;13.610;2023-12-20T11:55:11;100359.44;;;5.54;100.00
80323;BME280;69636;52.372;13.610;2023-12-20T11:57:39;100355.44;;;5.59;100.00
80323;BME280;69636;52.372;13.610;2023-12-20T12:00:07;100346.56;;;5.60;100.00
80323;BME280;69636;52.372;13.610;2023-12-20T12:02:35;100341.75;;;5.65;100.00
80323;BME280;69636;52.372;13.610;2023-12-20T12:05:02;100336.09;;;5.70;100.00
80323;BME280;69636;52.372;13.610;2023-12-20T12:07:30;100337.00;;;5.59;100.00
80323;BME280;69636;52.372;13.610;2023-12-20T12:09:57;100332.56;;;5.60;100.00
80323;BME280;69636;52.372;13.610;2023-12-20T12:12:24;100337.13;;;5.58;100.00
80323;BME280;69636;52.372;13.610;2023-12-20T12:14:54;100323.97;;;5.58;100.00
80323;BME280;69636;52.372;13.610;2023-12-20T12:17:22;100323.53;;;5.53;100.00
80323;BME280;69636;52.372;13.610;2023-12-20T12:19:49;100320.38;;;5.59;100.00
80323;BME280;69636;52.372;13.610;2023-12-20T12:22:16;100316.91;;;5.58;100.00
80323;BME280;69636;52.372;13.610;2023-12-20T12:24:44;100316.78;;;5.60;100.00
80323;BME280;69636;52.372;13.610;2023-12-20T12:27:12;100302.00;;;5.68;100.00
80323;BME280;69636;52.372;13.610;2023-12-20T12:29:40;100297.81;;;5.66;100.00
80323;BME280;69636;52.372;13.610;2023-12-20T12:32:09;100294.22;;;5.67;100.00
80323;BME280;69636;52.372;13.610;2023-12-20T12:34:37;100271.50;;;5.66;100.00
80323;BME280;69636;52.372;13.610;2023-12-20T12:37:05;100263.19;;;5.70;100.00
80323;BME280;69636;52.372;13.610;2023-12-20T12:39:32;100249.72;;;5.73;100.00
80323;BME280;69636;52.372;13.610;2023-12-20T12:41:59;100255.44;;;5.69;100.00
80323;BME280;69636;52.372;13.610;2023-12-20T12:44:27;100252.38;;;5.73;100.00